Cambara, Brazil
Current Conditions -  °F | °C
As of 4:00 PM on Saturday 20 Dec 2014 (Local Time) from SBLO Reporting Station
Broken Clouds Broken Clouds  
Wind Chill: 91°   Ceiling: 2000
Heat Index: 97°   Visibility: 6mi
Dew Point: 70°   Wind: 10mph
Humidity: 49%   Direction: 50°NE
Pressure: 29.77"   Gusts: NA
Location:  23.05°S, 50.07°W
Report Text: SBLO 201800Z 05009KT 9999 BKN020 33/21 Q1008
Loading
Personal Weather Stations






























Interactive Weather Map New forecast layout! Learn more

10-Day Weather Forecast

Advertisements
Track Severe Weather on mobile